createdAt,value
2023-03-28T00:00:29.093Z,54.04
2023-03-28T00:02:01.764Z,53.99
2023-03-28T00:03:39.618Z,54.49
2023-03-28T00:05:12.329Z,54.48
2023-03-28T00:06:46.664Z,54.35
2023-03-28T00:08:18.227Z,54.26
2023-03-28T00:09:50.427Z,54.23
2023-03-28T00:11:22.049Z,54.43
2023-03-28T00:12:53.658Z,53.99
2023-03-28T00:14:25.693Z,53.92
2023-03-28T00:16:02.099Z,53.79
2023-03-28T00:17:35.692Z,53.81
2023-03-28T00:19:11.804Z,54.11
2023-03-28T00:20:43.872Z,54.44
2023-03-28T00:22:16.148Z,54.18
2023-03-28T00:23:52.456Z,54.14
2023-03-28T00:25:25.378Z,53.82
2023-03-28T00:27:00.909Z,53.93
2023-03-28T00:28:34.988Z,53.72
2023-03-28T00:30:08.355Z,54.26
2023-03-28T00:31:40.458Z,53.67
2023-03-28T00:33:12.191Z,54.22
2023-03-28T00:34:43.762Z,53.74
2023-03-28T00:36:18.620Z,53.74
2023-03-28T00:37:52.383Z,53.73
2023-03-28T00:39:23.922Z,53.79
2023-03-28T00:40:58.485Z,53.98
2023-03-28T00:42:30.833Z,53.54
2023-03-28T00:44:02.599Z,53.79
2023-03-28T00:45:34.199Z,53.59
2023-03-28T00:47:06.580Z,53.39
2023-03-28T00:48:38.487Z,53.62
2023-03-28T00:50:11.851Z,53.49
2023-03-28T00:51:45.003Z,53.35
2023-03-28T00:53:17.384Z,53.45
2023-03-28T00:54:49.430Z,53.47
2023-03-28T00:56:21.976Z,53.43
2023-03-28T00:57:54.841Z,53.40
2023-03-28T00:59:27.333Z,53.20
2023-03-28T01:00:58.883Z,53.08
2023-03-28T01:02:30.475Z,53.49
2023-03-28T01:04:05.672Z,53.44
2023-03-28T01:05:37.234Z,53.18
2023-03-28T01:07:08.748Z,53.75
2023-03-28T01:08:40.553Z,53.76
2023-03-28T01:10:12.260Z,53.76
2023-03-28T01:11:43.970Z,53.65
2023-03-28T01:13:16.629Z,53.42
2023-03-28T01:14:49.674Z,53.50
2023-03-28T01:16:22.478Z,53.67
2023-03-28T01:17:54.436Z,53.75
2023-03-28T01:19:32.748Z,53.52
2023-03-28T01:21:19.106Z,53.67
2023-03-28T01:23:09.089Z,53.52
2023-03-28T01:24:46.003Z,53.40
2023-03-28T01:26:17.523Z,53.64
2023-03-28T01:27:52.262Z,53.78
2023-03-28T01:29:24.206Z,53.66
2023-03-28T01:31:10.921Z,53.86
2023-03-28T01:33:11.925Z,53.77
2023-03-28T01:34:46.094Z,53.97
2023-03-28T01:36:34.221Z,53.95
2023-03-28T01:38:06.796Z,53.68
2023-03-28T01:39:44.687Z,53.58
2023-03-28T01:41:16.630Z,53.79
2023-03-28T01:42:52.896Z,53.49
2023-03-28T01:44:28.034Z,53.17
2023-03-28T01:46:14.256Z,53.34
2023-03-28T01:47:45.822Z,53.95
2023-03-28T01:49:22.559Z,53.64
2023-03-28T01:50:57.534Z,53.77
2023-03-28T01:52:44.534Z,53.42
2023-03-28T01:54:16.516Z,53.05
2023-03-28T01:55:52.180Z,53.65
2023-03-28T01:57:29.760Z,53.61
2023-03-28T01:59:04.025Z,53.50
2023-03-28T02:00:40.183Z,53.69
2023-03-28T02:02:14.526Z,53.27
2023-03-28T02:03:47.977Z,53.63
2023-03-28T02:05:19.668Z,53.36
2023-03-28T02:06:51.570Z,53.60
2023-03-28T02:08:26.292Z,53.57
2023-03-28T02:09:57.790Z,53.64
2023-03-28T02:11:29.309Z,53.41
2023-03-28T02:13:04.523Z,53.38
2023-03-28T02:14:39.400Z,53.13
2023-03-28T02:16:11.312Z,53.22
2023-03-28T02:17:48.200Z,53.10
2023-03-28T02:19:21.300Z,53.26
2023-03-28T02:20:57.627Z,53.24
2023-03-28T02:22:33.756Z,53.25
2023-03-28T02:24:05.586Z,53.04
2023-03-28T02:25:37.499Z,53.33
2023-03-28T02:27:08.979Z,53.23
2023-03-28T02:28:41.170Z,53.40
2023-03-28T02:30:12.782Z,53.47
2023-03-28T02:31:44.433Z,53.22
2023-03-28T02:33:48.113Z,53.37
2023-03-28T02:35:22.090Z,53.07
2023-03-28T02:37:17.080Z,52.90
2023-03-28T02:38:53.511Z,53.10
2023-03-28T02:40:27.663Z,52.77
2023-03-28T02:42:08.954Z,52.49
2023-03-28T02:43:43.557Z,52.72
2023-03-28T02:45:33.706Z,53.07
2023-03-28T02:47:05.780Z,53.04
2023-03-28T02:48:46.189Z,52.69
2023-03-28T02:50:48.934Z,53.13
2023-03-28T02:52:40.325Z,53.04
2023-03-28T02:54:11.951Z,52.77
2023-03-28T02:55:46.365Z,53.01
2023-03-28T02:57:27.359Z,52.76
2023-03-28T02:59:00.162Z,52.86
2023-03-28T03:00:31.788Z,53.17
2023-03-28T03:02:03.992Z,52.78
2023-03-28T03:03:36.986Z,52.50
2023-03-28T03:05:09.787Z,53.06
2023-03-28T03:06:42.451Z,52.86
2023-03-28T03:08:14.195Z,52.84
2023-03-28T03:09:46.176Z,52.64
2023-03-28T03:11:17.699Z,52.94
2023-03-28T03:12:49.773Z,52.65
2023-03-28T03:14:21.382Z,52.71
2023-03-28T03:15:54.629Z,52.64
2023-03-28T03:17:27.176Z,52.85
2023-03-28T03:18:58.781Z,52.25
2023-03-28T03:20:34.228Z,52.47
2023-03-28T03:22:05.907Z,52.43
2023-03-28T03:23:37.598Z,52.31
2023-03-28T03:25:09.404Z,52.31
2023-03-28T03:26:40.949Z,52.00
2023-03-28T03:28:13.172Z,52.13
2023-03-28T03:29:44.772Z,52.15
2023-03-28T03:31:17.624Z,52.33
2023-03-28T03:32:49.238Z,52.63
2023-03-28T03:34:20.946Z,52.79
2023-03-28T03:35:53.599Z,52.75
2023-03-28T03:37:25.519Z,52.70
2023-03-28T03:38:57.359Z,52.53
2023-03-28T03:40:28.882Z,52.25
2023-03-28T03:42:00.465Z,52.62
2023-03-28T03:43:32.509Z,52.79
2023-03-28T03:45:04.713Z,52.30
2023-03-28T03:46:36.814Z,52.72
2023-03-28T03:48:08.609Z,52.15
2023-03-28T03:49:40.346Z,52.30
2023-03-28T03:51:11.868Z,52.48
2023-03-28T03:52:43.905Z,52.33
2023-03-28T03:54:15.797Z,52.87
2023-03-28T03:55:47.352Z,52.46
2023-03-28T03:57:19.042Z,52.55
2023-03-28T03:58:51.110Z,52.47
2023-03-28T04:00:22.642Z,52.83
2023-03-28T04:01:55.867Z,53.03
2023-03-28T04:03:27.550Z,53.14
2023-03-28T04:04:59.995Z,53.03
2023-03-28T04:06:31.600Z,52.65
2023-03-28T04:08:03.417Z,52.57
2023-03-28T04:09:35.488Z,52.55
2023-03-28T04:11:08.402Z,53.10
2023-03-28T04:12:40.321Z,52.78
2023-03-28T04:14:11.827Z,52.65
2023-03-28T04:15:43.404Z,52.69
2023-03-28T04:17:16.506Z,52.56
2023-03-28T04:18:51.146Z,52.68
2023-03-28T04:20:26.855Z,53.00
2023-03-28T04:21:59.314Z,52.92
2023-03-28T04:23:31.345Z,52.50
2023-03-28T04:25:03.101Z,52.83
2023-03-28T04:26:38.056Z,52.60
2023-03-28T04:28:10.400Z,52.60
2023-03-28T04:29:42.580Z,53.04
2023-03-28T04:31:14.050Z,52.21
2023-03-28T04:32:49.595Z,52.38
2023-03-28T04:34:25.858Z,52.54
2023-03-28T04:36:00.665Z,52.53
2023-03-28T04:37:32.622Z,51.86
2023-03-28T04:39:04.560Z,51.91
2023-03-28T04:40:39.264Z,52.20
2023-03-28T04:42:10.781Z,52.69
2023-03-28T04:43:43.516Z,52.46
2023-03-28T04:45:17.702Z,52.21
2023-03-28T04:46:51.158Z,52.19
2023-03-28T04:48:22.977Z,52.63
2023-03-28T04:49:54.532Z,52.55
2023-03-28T04:51:28.659Z,52.23
2023-03-28T04:53:00.377Z,51.84
2023-03-28T04:54:32.080Z,51.99
2023-03-28T04:56:03.568Z,52.18
2023-03-28T04:57:37.302Z,51.88
2023-03-28T04:59:08.814Z,52.03
2023-03-28T05:00:40.331Z,52.38
2023-03-28T05:02:12.242Z,51.92
2023-03-28T05:03:44.137Z,52.10
2023-03-28T05:05:15.964Z,52.53
2023-03-28T05:06:48.270Z,52.18
2023-03-28T05:08:20.957Z,51.85
2023-03-28T05:09:52.995Z,51.57
2023-03-28T05:11:24.602Z,51.43
2023-03-28T05:12:58.599Z,51.59
2023-03-28T05:14:30.273Z,51.87
2023-03-28T05:16:01.892Z,51.80
2023-03-28T05:17:33.705Z,51.32
2023-03-28T05:19:05.666Z,51.86
2023-03-28T05:20:37.766Z,51.50
2023-03-28T05:22:09.741Z,51.72
2023-03-28T05:23:41.858Z,52.01
2023-03-28T05:25:13.568Z,51.80
2023-03-28T05:26:45.588Z,51.75
2023-03-28T05:28:17.122Z,52.13
2023-03-28T05:29:48.820Z,51.73
2023-03-28T05:31:20.430Z,51.54
2023-03-28T05:32:52.247Z,51.20
2023-03-28T05:34:24.342Z,51.13
2023-03-28T05:35:56.306Z,51.54
2023-03-28T05:37:28.538Z,51.39
2023-03-28T05:39:00.344Z,51.25
2023-03-28T05:40:31.975Z,51.46
2023-03-28T05:42:03.722Z,51.24
2023-03-28T05:43:35.770Z,51.18
2023-03-28T05:45:07.812Z,51.72
2023-03-28T05:46:39.989Z,51.31
2023-03-28T05:48:11.715Z,51.50
2023-03-28T05:49:43.953Z,51.26
2023-03-28T05:51:15.631Z,51.61
2023-03-28T05:52:47.118Z,51.09
2023-03-28T05:54:18.594Z,51.67
2023-03-28T05:55:50.686Z,51.59
2023-03-28T05:57:22.344Z,51.75
2023-03-28T05:58:53.943Z,51.62
2023-03-28T06:00:25.942Z,51.54
2023-03-28T06:01:57.893Z,51.39
2023-03-28T06:03:32.073Z,51.73
2023-03-28T06:05:03.926Z,51.53
2023-03-28T06:06:35.498Z,51.76
2023-03-28T06:08:09.588Z,51.03
2023-03-28T06:09:41.244Z,51.61
2023-03-28T06:11:12.896Z,51.32
2023-03-28T06:12:44.530Z,51.79
2023-03-28T06:14:16.041Z,51.42
2023-03-28T06:15:47.818Z,51.64
2023-03-28T06:17:19.551Z,51.66
2023-03-28T06:18:51.072Z,51.31
2023-03-28T06:20:22.648Z,51.63
2023-03-28T06:21:54.249Z,51.02
2023-03-28T06:23:25.977Z,51.51
2023-03-28T06:24:57.862Z,51.50
2023-03-28T06:26:30.375Z,50.97
2023-03-28T06:28:02.337Z,51.10
2023-03-28T06:29:34.272Z,51.59
2023-03-28T06:31:05.944Z,51.40
2023-03-28T06:32:37.583Z,51.13
2023-03-28T06:34:09.175Z,50.96
2023-03-28T06:35:40.902Z,51.05
2023-03-28T06:37:12.437Z,50.66
2023-03-28T06:38:44.459Z,51.21
2023-03-28T06:40:16.162Z,51.26
2023-03-28T06:41:47.662Z,51.04
2023-03-28T06:43:19.241Z,51.14
2023-03-28T06:44:50.837Z,50.94
2023-03-28T06:46:22.355Z,51.09
2023-03-28T06:47:54.173Z,50.97
2023-03-28T06:49:25.958Z,50.75
2023-03-28T06:50:58.485Z,50.61
2023-03-28T06:52:30.906Z,50.76
2023-03-28T06:54:02.729Z,50.60
2023-03-28T06:55:35.746Z,50.76
2023-03-28T06:57:07.504Z,50.59
2023-03-28T06:58:39.508Z,50.49
2023-03-28T07:00:11.568Z,50.24
2023-03-28T07:01:43.495Z,50.71
2023-03-28T07:03:15.100Z,50.68
2023-03-28T07:04:47.043Z,50.35
2023-03-28T07:06:18.622Z,50.74
2023-03-28T07:07:50.212Z,50.81
2023-03-28T07:09:21.846Z,50.72
2023-03-28T07:10:53.276Z,50.61
2023-03-28T07:12:25.010Z,50.19
2023-03-28T07:13:56.611Z,50.58
2023-03-28T07:15:28.228Z,50.49
2023-03-28T07:17:00.042Z,50.10
2023-03-28T07:18:31.907Z,50.15
2023-03-28T07:20:04.833Z,50.20
2023-03-28T07:21:37.017Z,49.98
2023-03-28T07:23:08.605Z,50.00
2023-03-28T07:24:40.993Z,50.82
2023-03-28T07:26:13.502Z,50.48
2023-03-28T07:27:45.902Z,50.19
2023-03-28T07:29:17.352Z,50.77
2023-03-28T07:30:48.830Z,50.56
2023-03-28T07:32:20.542Z,50.06
2023-03-28T07:33:52.440Z,50.64
2023-03-28T07:35:24.186Z,50.24
2023-03-28T07:36:56.428Z,50.46
2023-03-28T07:38:28.042Z,50.54
2023-03-28T07:40:00.391Z,50.47
2023-03-28T07:41:32.398Z,50.91
2023-03-28T07:43:04.460Z,50.40
2023-03-28T07:44:36.520Z,50.29
2023-03-28T07:46:09.399Z,50.67
2023-03-28T07:47:42.333Z,50.49
2023-03-28T07:49:15.480Z,50.25
2023-03-28T07:50:50.020Z,50.95
2023-03-28T07:52:21.884Z,50.72
2023-03-28T07:53:53.428Z,50.98
2023-03-28T07:55:26.081Z,50.42
2023-03-28T07:56:57.969Z,50.46
2023-03-28T07:58:29.549Z,50.45
2023-03-28T08:00:02.029Z,50.44
2023-03-28T08:01:34.222Z,50.49
2023-03-28T08:03:06.073Z,50.35
2023-03-28T08:04:37.986Z,50.21
2023-03-28T08:06:20.643Z,50.54
2023-03-28T08:08:01.463Z,50.46
2023-03-28T08:09:33.508Z,50.78
2023-03-28T08:11:06.224Z,50.89
2023-03-28T08:12:38.421Z,50.81
2023-03-28T08:14:11.214Z,50.15
2023-03-28T08:15:43.202Z,50.71
2023-03-28T08:17:14.950Z,50.91
2023-03-28T08:18:54.397Z,50.69
2023-03-28T08:20:31.892Z,50.63
2023-03-28T08:22:03.797Z,50.15
2023-03-28T08:23:36.037Z,50.19
2023-03-28T08:25:08.157Z,50.20
2023-03-28T08:26:39.980Z,50.19
2023-03-28T08:28:11.595Z,49.80
2023-03-28T08:29:43.268Z,50.08
2023-03-28T08:31:15.406Z,50.28
2023-03-28T08:32:48.975Z,50.13
2023-03-28T08:34:20.811Z,50.32
2023-03-28T08:35:53.539Z,50.19
2023-03-28T08:37:25.222Z,50.06
2023-03-28T08:39:00.717Z,49.95
2023-03-28T08:40:32.510Z,50.33
2023-03-28T08:42:22.370Z,50.21
2023-03-28T08:43:56.955Z,50.26
2023-03-28T08:45:31.598Z,50.35
2023-03-28T08:47:04.088Z,50.30
2023-03-28T08:48:40.071Z,50.41
2023-03-28T08:50:20.062Z,49.81
2023-03-28T08:52:01.769Z,49.70
2023-03-28T08:53:42.578Z,49.81
2023-03-28T08:55:23.732Z,50.27
2023-03-28T08:56:58.611Z,50.20
2023-03-28T08:58:34.863Z,50.48
2023-03-28T09:00:24.822Z,50.66
2023-03-28T09:01:56.456Z,50.29
2023-03-28T09:03:28.180Z,50.35
2023-03-28T09:05:17.857Z,50.22
2023-03-28T09:06:53.035Z,50.09
2023-03-28T09:08:48.307Z,50.13
2023-03-28T09:10:22.932Z,50.08
2023-03-28T09:12:10.100Z,49.97
2023-03-28T09:13:41.720Z,50.09
2023-03-28T09:15:23.039Z,49.92
2023-03-28T09:17:18.020Z,49.93
2023-03-28T09:19:10.638Z,50.03
2023-03-28T09:20:48.395Z,49.76
2023-03-28T09:22:32.611Z,49.84
2023-03-28T09:24:07.025Z,49.98
2023-03-28T09:25:42.553Z,49.79
2023-03-28T09:27:17.094Z,49.57
2023-03-28T09:29:07.689Z,49.73
2023-03-28T09:30:45.979Z,49.73
2023-03-28T09:32:19.051Z,49.37
2023-03-28T09:33:51.048Z,49.32
2023-03-28T09:35:23.279Z,49.02
2023-03-28T09:36:57.803Z,49.42
2023-03-28T09:38:33.696Z,49.29
2023-03-28T09:40:17.920Z,49.32
2023-03-28T09:41:52.617Z,49.25
2023-03-28T09:43:24.316Z,49.39
2023-03-28T09:45:02.313Z,49.49
2023-03-28T09:46:44.366Z,49.30
2023-03-28T09:48:19.896Z,49.22
2023-03-28T09:50:02.323Z,49.27
2023-03-28T09:51:41.582Z,49.36
2023-03-28T09:53:39.608Z,49.57
2023-03-28T09:55:16.007Z,49.72
2023-03-28T09:56:47.752Z,49.63
2023-03-28T09:58:19.805Z,49.73
2023-03-28T09:59:51.913Z,49.70
2023-03-28T10:01:32.996Z,49.32
2023-03-28T10:03:05.084Z,49.43
2023-03-28T10:04:37.192Z,49.39
2023-03-28T10:06:18.789Z,49.12
2023-03-28T10:07:50.620Z,49.25
2023-03-28T10:09:23.479Z,49.04
2023-03-28T10:10:56.263Z,49.06
2023-03-28T10:12:34.776Z,48.85
2023-03-28T10:14:10.191Z,48.92
2023-03-28T10:15:41.984Z,48.70
2023-03-28T10:17:17.894Z,48.83
2023-03-28T10:18:50.126Z,48.98
2023-03-28T10:20:22.058Z,49.01
2023-03-28T10:21:53.767Z,49.30
2023-03-28T10:23:25.807Z,48.96
2023-03-28T10:24:57.655Z,48.92
2023-03-28T10:26:29.183Z,48.86
2023-03-28T10:28:01.441Z,48.92
2023-03-28T10:29:33.817Z,48.75
2023-03-28T10:31:06.125Z,48.66
2023-03-28T10:32:37.806Z,48.66
2023-03-28T10:34:10.488Z,48.57
2023-03-28T10:35:46.036Z,48.58
2023-03-28T10:37:27.602Z,48.85
2023-03-28T10:38:59.673Z,48.62
2023-03-28T10:40:31.984Z,48.78
2023-03-28T10:42:04.161Z,48.57
2023-03-28T10:43:36.744Z,48.41
2023-03-28T10:45:13.778Z,48.21
2023-03-28T10:46:45.550Z,48.06
2023-03-28T10:48:22.873Z,48.32
2023-03-28T10:49:55.246Z,48.16
2023-03-28T10:51:26.879Z,48.59
2023-03-28T10:53:01.430Z,48.37
2023-03-28T10:54:35.921Z,48.70
2023-03-28T10:56:25.976Z,47.92
2023-03-28T10:58:00.126Z,47.98
2023-03-28T10:59:38.146Z,47.96
2023-03-28T11:01:11.549Z,47.62
2023-03-28T11:02:49.724Z,47.44
2023-03-28T11:04:40.061Z,47.85
2023-03-28T11:06:18.270Z,47.82
2023-03-28T11:08:04.835Z,48.36
2023-03-28T11:09:36.764Z,48.46
2023-03-28T11:11:11.376Z,48.26
2023-03-28T11:12:55.559Z,47.49
2023-03-28T11:14:31.061Z,47.64
2023-03-28T11:16:12.109Z,48.17
2023-03-28T11:17:48.234Z,47.69
2023-03-28T11:19:20.180Z,47.33
2023-03-28T11:21:09.812Z,47.56
2023-03-28T11:22:58.782Z,47.80
2023-03-28T11:24:37.537Z,47.94
2023-03-28T11:26:16.320Z,47.46
2023-03-28T11:27:56.135Z,47.79
2023-03-28T11:29:47.103Z,47.60
2023-03-28T11:31:20.789Z,48.14
2023-03-28T11:32:57.762Z,47.54
2023-03-28T11:34:36.032Z,47.83
2023-03-28T11:36:11.240Z,47.64
2023-03-28T11:37:48.372Z,47.72
2023-03-28T11:39:22.187Z,47.54
2023-03-28T11:40:53.883Z,46.63
2023-03-28T11:42:27.965Z,47.05
2023-03-28T11:44:01.465Z,46.59
2023-03-28T11:45:50.973Z,46.88
2023-03-28T11:47:26.047Z,46.87
2023-03-28T11:49:16.517Z,46.95
2023-03-28T11:50:48.536Z,46.88
2023-03-28T11:52:28.549Z,47.06
2023-03-28T11:54:04.296Z,46.50
2023-03-28T11:55:36.924Z,46.38
2023-03-28T11:57:14.451Z,46.41
2023-03-28T11:58:46.761Z,46.63
2023-03-28T12:00:32.677Z,46.79
2023-03-28T12:02:12.877Z,46.89
2023-03-28T12:03:51.404Z,47.01
2023-03-28T12:05:40.738Z,46.93
2023-03-28T12:07:16.262Z,46.81
2023-03-28T12:08:50.974Z,46.06
2023-03-28T12:10:36.601Z,45.80
2023-03-28T12:12:16.645Z,45.97
2023-03-28T12:13:55.487Z,46.20
2023-03-28T12:15:38.226Z,46.69
2023-03-28T12:17:17.496Z,46.68
2023-03-28T12:18:52.827Z,46.38
2023-03-28T12:20:31.437Z,46.23
2023-03-28T12:22:06.137Z,45.72
2023-03-28T12:23:38.532Z,45.38
2023-03-28T12:25:14.392Z,45.98
2023-03-28T12:26:54.737Z,45.44
2023-03-28T12:28:40.446Z,45.44
2023-03-28T12:30:14.887Z,45.96
2023-03-28T12:31:48.022Z,46.08
2023-03-28T12:33:29.464Z,45.72
2023-03-28T12:35:33.944Z,45.80
2023-03-28T12:37:12.653Z,44.96
2023-03-28T12:38:47.861Z,45.34
2023-03-28T12:40:39.928Z,45.27
2023-03-28T12:42:12.199Z,44.97
2023-03-28T12:43:46.081Z,44.96
2023-03-28T12:45:21.698Z,44.52
2023-03-28T12:46:54.420Z,44.50
2023-03-28T12:48:45.914Z,44.51
2023-03-28T12:50:37.736Z,44.78
2023-03-28T12:52:12.244Z,44.82
2023-03-28T12:53:45.538Z,43.82
2023-03-28T12:55:26.941Z,44.64
2023-03-28T12:57:03.171Z,44.63
2023-03-28T12:58:35.377Z,44.75
2023-03-28T13:00:16.614Z,44.52
2023-03-28T13:01:48.594Z,44.52
2023-03-28T13:03:35.657Z,44.17
2023-03-28T13:05:09.875Z,43.99
2023-03-28T13:06:42.507Z,43.86
2023-03-28T13:08:24.623Z,43.93
2023-03-28T13:09:59.848Z,43.32
2023-03-28T13:11:37.429Z,44.05
2023-03-28T13:13:21.670Z,43.56
2023-03-28T13:15:01.292Z,43.82
2023-03-28T13:16:53.526Z,43.74
2023-03-28T13:18:25.819Z,43.36
2023-03-28T13:19:59.927Z,42.95
2023-03-28T13:21:41.600Z,43.35
2023-03-28T13:23:13.719Z,43.62
2023-03-28T13:24:45.847Z,43.14
2023-03-28T13:26:17.617Z,43.18
2023-03-28T13:27:49.833Z,43.17
2023-03-28T13:29:22.192Z,42.94
2023-03-28T13:31:04.351Z,42.90
2023-03-28T13:32:37.886Z,43.06
2023-03-28T13:34:12.845Z,43.08
2023-03-28T13:35:45.947Z,42.91
2023-03-28T13:37:23.130Z,42.63
2023-03-28T13:38:55.247Z,43.30
2023-03-28T13:40:48.666Z,42.73
2023-03-28T13:42:27.000Z,42.84
2023-03-28T13:43:59.270Z,42.53
2023-03-28T13:45:31.291Z,42.58
2023-03-28T13:47:03.081Z,42.71
2023-03-28T13:48:38.744Z,42.77
2023-03-28T13:50:20.058Z,42.30
2023-03-28T13:51:52.547Z,42.59
2023-03-28T13:53:29.964Z,42.64
2023-03-28T13:55:15.400Z,42.83
2023-03-28T13:56:48.134Z,42.67
2023-03-28T13:58:20.165Z,42.90
2023-03-28T13:59:58.733Z,42.37
2023-03-28T14:01:34.439Z,42.01
2023-03-28T14:03:11.021Z,42.67
2023-03-28T14:04:46.734Z,41.98
2023-03-28T14:06:20.491Z,42.13
2023-03-28T14:07:52.513Z,41.55
2023-03-28T14:09:27.803Z,41.62
2023-03-28T14:11:00.876Z,41.73
2023-03-28T14:12:32.783Z,42.07
2023-03-28T14:14:08.836Z,42.41
2023-03-28T14:15:41.260Z,41.80
2023-03-28T14:17:16.855Z,41.75
2023-03-28T14:18:49.078Z,41.83
2023-03-28T14:20:21.128Z,41.84
2023-03-28T14:21:53.042Z,41.53
2023-03-28T14:23:31.520Z,40.92
2023-03-28T14:25:04.498Z,40.90
2023-03-28T14:26:36.376Z,41.35
2023-03-28T14:28:08.818Z,40.70
2023-03-28T14:29:53.499Z,40.65
2023-03-28T14:31:28.933Z,41.18
2023-03-28T14:33:20.977Z,40.87
2023-03-28T14:34:54.089Z,41.11
2023-03-28T14:36:31.529Z,40.90
2023-03-28T14:38:07.016Z,41.05
2023-03-28T14:39:41.786Z,40.37
2023-03-28T14:41:21.746Z,40.79
2023-03-28T14:43:01.000Z,40.70
2023-03-28T14:44:35.651Z,40.98
2023-03-28T14:46:08.456Z,40.24
2023-03-28T14:47:40.246Z,40.23
2023-03-28T14:49:13.873Z,40.45
2023-03-28T14:50:46.082Z,40.10
2023-03-28T14:52:22.805Z,39.98
2023-03-28T14:53:56.977Z,39.88
2023-03-28T14:55:28.744Z,40.18
2023-03-28T14:57:06.899Z,40.36
2023-03-28T14:58:39.503Z,40.05
2023-03-28T15:00:19.160Z,39.70
2023-03-28T15:01:52.029Z,40.17
2023-03-28T15:03:39.243Z,40.18
2023-03-28T15:05:13.540Z,39.74
2023-03-28T15:06:53.188Z,39.75
2023-03-28T15:08:31.345Z,39.45
2023-03-28T15:10:06.761Z,39.53
2023-03-28T15:11:39.575Z,39.76
2023-03-28T15:13:14.268Z,39.32
2023-03-28T15:14:45.939Z,39.40
2023-03-28T15:16:19.416Z,39.74
2023-03-28T15:17:51.587Z,39.51
2023-03-28T15:19:25.497Z,39.65
2023-03-28T15:20:57.458Z,39.39
2023-03-28T15:22:29.828Z,39.72
2023-03-28T15:24:04.158Z,39.30
2023-03-28T15:25:35.982Z,39.52
2023-03-28T15:27:08.120Z,39.69
2023-03-28T15:28:39.845Z,39.14
2023-03-28T15:30:15.778Z,39.38
2023-03-28T15:31:47.918Z,39.07
2023-03-28T15:33:21.186Z,39.12
2023-03-28T15:35:02.530Z,38.61
2023-03-28T15:36:34.853Z,39.42
2023-03-28T15:38:15.653Z,38.88
2023-03-28T15:39:49.829Z,39.82
2023-03-28T15:41:23.139Z,39.47
2023-03-28T15:42:54.920Z,39.29
2023-03-28T15:44:27.796Z,38.98
2023-03-28T15:46:00.005Z,39.45
2023-03-28T15:47:31.612Z,39.44
2023-03-28T15:49:03.776Z,39.40
2023-03-28T15:50:36.472Z,39.56
2023-03-28T15:52:13.997Z,39.42
2023-03-28T15:53:46.559Z,38.95
2023-03-28T15:55:19.067Z,39.24
2023-03-28T15:56:50.976Z,39.19
2023-03-28T15:58:23.484Z,39.22
2023-03-28T15:59:56.641Z,38.89
2023-03-28T16:01:32.018Z,38.98
2023-03-28T16:03:19.982Z,39.34
2023-03-28T16:04:59.118Z,39.22
2023-03-28T16:06:33.662Z,39.43
2023-03-28T16:08:16.576Z,39.52
2023-03-28T16:09:50.958Z,39.20
2023-03-28T16:11:23.893Z,39.26
2023-03-28T16:12:55.673Z,39.23
2023-03-28T16:14:27.256Z,39.34
2023-03-28T16:15:59.099Z,39.63
2023-03-28T16:17:31.146Z,39.29
2023-03-28T16:19:02.736Z,39.36
2023-03-28T16:20:35.137Z,39.75
2023-03-28T16:22:06.887Z,39.07
2023-03-28T16:23:38.539Z,38.88
2023-03-28T16:25:10.124Z,39.09
2023-03-28T16:26:41.701Z,39.65
2023-03-28T16:28:19.476Z,38.74
2023-03-28T16:29:51.706Z,39.05
2023-03-28T16:31:23.880Z,39.47
2023-03-28T16:32:56.620Z,38.99
2023-03-28T16:34:28.462Z,39.18
2023-03-28T16:36:00.945Z,38.79
2023-03-28T16:37:32.753Z,39.53
2023-03-28T16:39:05.454Z,39.40
2023-03-28T16:40:37.152Z,39.11
2023-03-28T16:42:09.013Z,39.46
2023-03-28T16:43:40.965Z,38.88
2023-03-28T16:45:13.864Z,39.57
2023-03-28T16:46:46.029Z,39.42
2023-03-28T16:48:17.616Z,39.37
2023-03-28T16:49:49.321Z,38.99
2023-03-28T16:51:21.116Z,38.94
2023-03-28T16:52:52.727Z,39.15
2023-03-28T16:54:24.275Z,39.11
2023-03-28T16:55:56.029Z,39.07
2023-03-28T16:57:27.781Z,38.83
2023-03-28T16:58:59.520Z,39.24
2023-03-28T17:00:31.279Z,39.15
2023-03-28T17:02:02.999Z,38.90
2023-03-28T17:03:34.668Z,39.13
2023-03-28T17:05:07.351Z,39.24
2023-03-28T17:06:39.030Z,39.42
2023-03-28T17:08:11.392Z,39.54
2023-03-28T17:09:43.999Z,39.35
2023-03-28T17:11:15.711Z,39.54
2023-03-28T17:12:47.693Z,39.68
2023-03-28T17:14:19.516Z,39.54
2023-03-28T17:15:53.557Z,39.51
2023-03-28T17:17:28.426Z,39.47
2023-03-28T17:19:00.236Z,39.53
2023-03-28T17:20:35.398Z,39.94
2023-03-28T17:22:07.701Z,40.07
2023-03-28T17:23:40.175Z,40.19
2023-03-28T17:25:12.111Z,40.14
2023-03-28T17:26:46.860Z,39.90
2023-03-28T17:28:18.454Z,40.24
2023-03-28T17:29:51.501Z,40.00
2023-03-28T17:31:25.478Z,40.15
2023-03-28T17:32:57.435Z,39.94
2023-03-28T17:34:32.114Z,40.18
2023-03-28T17:36:21.832Z,40.16
2023-03-28T17:37:54.258Z,40.28
2023-03-28T17:39:25.925Z,40.41
2023-03-28T17:40:57.784Z,40.46
2023-03-28T17:42:29.594Z,40.40
2023-03-28T17:44:05.170Z,40.49
2023-03-28T17:45:36.741Z,40.24
2023-03-28T17:47:08.997Z,39.83
2023-03-28T17:48:41.059Z,40.23
2023-03-28T17:50:13.309Z,40.18
2023-03-28T17:51:45.174Z,40.55
2023-03-28T17:53:16.873Z,40.33
2023-03-28T17:54:50.307Z,40.39
2023-03-28T17:56:24.702Z,40.25
2023-03-28T17:57:57.091Z,40.65
2023-03-28T17:59:29.356Z,40.63
2023-03-28T18:01:03.080Z,40.42
2023-03-28T18:02:34.888Z,40.96
2023-03-28T18:04:07.358Z,40.48
2023-03-28T18:05:39.201Z,40.73
2023-03-28T18:07:16.434Z,40.50
2023-03-28T18:08:49.426Z,40.63
2023-03-28T18:10:21.076Z,40.85
2023-03-28T18:11:52.756Z,40.83
2023-03-28T18:13:24.837Z,40.85
2023-03-28T18:14:58.916Z,40.78
2023-03-28T18:16:32.172Z,40.68
2023-03-28T18:18:05.186Z,40.87
2023-03-28T18:19:37.452Z,41.04
2023-03-28T18:21:09.418Z,40.67
2023-03-28T18:22:44.178Z,40.62
2023-03-28T18:24:16.607Z,41.09
2023-03-28T18:25:49.092Z,41.00
2023-03-28T18:27:20.668Z,40.49
2023-03-28T18:28:52.620Z,40.86
2023-03-28T18:30:27.951Z,41.04
2023-03-28T18:32:00.482Z,40.63
2023-03-28T18:33:32.515Z,40.85
2023-03-28T18:35:10.142Z,40.35
2023-03-28T18:36:42.497Z,40.64
2023-03-28T18:38:20.496Z,41.01
2023-03-28T18:39:55.748Z,40.90
2023-03-28T18:41:27.650Z,40.81
2023-03-28T18:42:59.308Z,41.08
2023-03-28T18:44:30.998Z,40.78
2023-03-28T18:46:05.356Z,41.22
2023-03-28T18:47:40.183Z,41.03
2023-03-28T18:49:11.876Z,41.09
2023-03-28T18:50:43.559Z,41.14
2023-03-28T18:52:15.647Z,41.52
2023-03-28T18:53:47.640Z,41.14
2023-03-28T18:55:19.679Z,41.08
2023-03-28T18:56:51.567Z,41.94
2023-03-28T18:58:26.498Z,41.97
2023-03-28T19:00:00.542Z,41.91
2023-03-28T19:01:34.324Z,41.91
2023-03-28T19:03:09.355Z,42.12
2023-03-28T19:04:41.567Z,41.70
2023-03-28T19:06:13.411Z,41.82
2023-03-28T19:07:45.086Z,42.28
2023-03-28T19:09:20.284Z,41.91
2023-03-28T19:10:52.726Z,41.75
2023-03-28T19:12:24.306Z,41.70
2023-03-28T19:13:56.084Z,41.71
2023-03-28T19:15:30.501Z,41.52
2023-03-28T19:17:05.873Z,42.06
2023-03-28T19:18:38.222Z,41.68
2023-03-28T19:20:13.571Z,41.43
2023-03-28T19:21:45.985Z,42.08
2023-03-28T19:23:17.920Z,41.77
2023-03-28T19:24:49.564Z,42.03
2023-03-28T19:26:24.158Z,41.82
2023-03-28T19:27:56.207Z,41.78
2023-03-28T19:29:32.195Z,42.51
2023-03-28T19:31:04.718Z,41.86
2023-03-28T19:32:36.402Z,41.92
2023-03-28T19:34:13.470Z,41.89
2023-03-28T19:35:45.096Z,42.11
2023-03-28T19:37:16.864Z,41.96
2023-03-28T19:38:48.788Z,42.34
2023-03-28T19:40:24.009Z,42.33
2023-03-28T19:42:04.529Z,42.51
2023-03-28T19:43:36.292Z,42.21
2023-03-28T19:45:08.398Z,42.31
2023-03-28T19:46:40.211Z,42.61
2023-03-28T19:48:12.840Z,42.09
2023-03-28T19:49:44.474Z,42.34
2023-03-28T19:51:18.798Z,42.11
2023-03-28T19:52:51.413Z,42.36
2023-03-28T19:54:23.651Z,42.36
2023-03-28T19:55:56.899Z,42.45
2023-03-28T19:57:28.949Z,42.47
2023-03-28T19:59:00.741Z,42.44
2023-03-28T20:00:32.455Z,42.97
2023-03-28T20:02:07.435Z,42.63
2023-03-28T20:03:39.333Z,42.89
2023-03-28T20:05:10.928Z,42.82
2023-03-28T20:06:42.530Z,43.09
2023-03-28T20:08:14.261Z,42.27
2023-03-28T20:09:51.906Z,42.43
2023-03-28T20:11:23.657Z,42.71
2023-03-28T20:12:55.607Z,42.67
2023-03-28T20:14:42.867Z,43.02
2023-03-28T20:16:15.189Z,42.50
2023-03-28T20:17:48.910Z,42.53